Terminal Aerodrome Forecast
Issued by NWS St Louis, MO

Home | Current Version | Previous Version | Text Only | Print | Product List | Glossary On
Versions: 1 2 3 4 5 6 7 8 9 10 11 12 13 14 15 16 17 18 19 20 21 22 23 24 25 26 27
366
FTUS43 KLSX 131502 AAA
TAFSTL
TAF AMD
KSTL 131502Z 1315/1418 34008KT P6SM BKN150
     FM132300 07004KT P6SM OVC080
     FM140500 12008KT P6SM OVC050
     FM141200 13014KT 2SM -SN OVC020=

USA.gov is the U.S. government's official web portal to all federal, state and local government web resources and services.